Time;durP1;ratioP1;P1;durP2;ratioP2;P2;SDS_P1;SDS_P2;PMS_P1;PMS_P2;Temp;Humidity;BMP_temperature;BMP_pressure;BME280_temperature;BME280_humidity;BME280_pressure;Samples;Min_cycle;Max_cycle;Signal;HPM_P1;HPM_P2
2022/08/11 00:00:12;;;;;;;;;;;;;;;;;;1040458;28;19909;-78
2022/08/11 00:00:42;;;;;;;;;;;;;;;;;;1036287;28;19909;-78
2022/08/11 00:01:13;;;;;;;;;;;;;;;;;;1040270;28;19909;-78
2022/08/11 00:01:43;;;;;;;;;;;;;;;;;;1040417;28;20349;-78
2022/08/11 00:02:13;;;;;;;;;;;;;;;;;;1040322;28;19909;-78
2022/08/11 00:02:44;;;;;;;;;;;;;;;;;;1036149;28;19910;-78
2022/08/11 00:03:14;;;;;;;;;;;;;;;;;;1032674;28;19961;-78
2022/08/11 00:03:45;;;;;;;;;;;;;;;;;;1032760;28;19932;-78
2022/08/11 00:04:15;;;;;;;;;;;;;;;;;;1032245;28;20000;-78
2022/08/11 00:04:46;;;;;;;;;;;;;;;;;;1032177;28;19913;-78
2022/08/11 00:05:16;;;;;;;;;;;;;;;;;;1032165;28;20389;-78
2022/08/11 00:05:46;;;;;;;;;;;;;;;;;;1036146;28;19967;-78
2022/08/11 00:06:16;;;;;;;;;;;;;;;;;;1032198;28;20007;-78
2022/08/11 00:06:47;;;;;;;;;;;;;;;;;;1036239;28;19916;-78
2022/08/11 00:07:17;;;;;;;;;;;;;;;;;;1040355;28;20447;-78
2022/08/11 00:07:48;;;;;;;;;;;;;;;;;;1040194;28;19909;-78
2022/08/11 00:08:18;;;;;;;;;;;;;;;;;;1040389;28;19917;-78
2022/08/11 00:08:49;;;;;;;;;;;;;;;;;;1040246;28;19999;-78
2022/08/11 00:09:20;;;;;;;;;;;;;;;;;;1040241;28;19916;-78
2022/08/11 00:09:50;;;;;;;;;;;;;;;;;;1036022;28;19910;-78
2022/08/11 00:10:20;;;;;;;;;;;;;;;;;;1036001;28;19972;-78
2022/08/11 00:10:51;;;;;;;;;;;;;;;;;;1036095;28;20447;-78
2022/08/11 00:11:21;;;;;;;;;;;;;;;;;;1036263;28;20305;-78
2022/08/11 00:11:52;;;;;;;;;;;;;;;;;;1040208;28;20365;-78
2022/08/11 00:12:22;;;;;;;;;;;;;;;;;;1036335;28;19913;-78
2022/08/11 00:12:52;;;;;;;;;;;;;;;;;;1036163;28;20448;-78
2022/08/11 00:13:23;;;;;;;;;;;;;;;;;;1040360;28;20319;-78
2022/08/11 00:13:53;;;;;;;;;;;;;;;;;;1040121;28;19913;-78
2022/08/11 00:14:23;;;;;;;;;;;;;;;;;;1036170;28;19909;-78
2022/08/11 00:14:54;;;;;;;;;;;;;;;;;;1036215;28;20355;-78
2022/08/11 00:15:25;;;;;;;;;;;;;;;;;;1032186;28;20281;-78
2022/08/11 00:15:55;;;;;;;;;;;;;;;;;;1032393;28;19936;-78
2022/08/11 00:16:25;;;;;;;;;;;;;;;;;;1031919;28;20377;-78
2022/08/11 00:16:56;;;;;;;;;;;;;;;;;;1032343;28;19914;-78
2022/08/11 00:17:26;;;;;;;;;;;;;;;;;;1036202;28;19941;-78
2022/08/11 00:17:56;;;;;;;;;;;;;;;;;;1040285;28;19913;-78
2022/08/11 00:18:27;;;;;;;;;;;;;;;;;;1040618;28;20379;-78
2022/08/11 00:18:57;;;;;;;;;;;;;;;;;;1040669;28;19913;-78
2022/08/11 00:19:27;;;;;;;;;;;;;;;;;;1040268;28;19909;-78
2022/08/11 00:19:58;;;;;;;;;;;;;;;;;;1040289;28;19920;-78
2022/08/11 00:20:28;;;;;;;;;;;;;;;;;;1040256;28;19909;-78
2022/08/11 00:20:58;;;;;;;;;;;;;;;;;;1040183;28;20410;-78
2022/08/11 00:21:29;;;;;;;;;;;;;;;;;;1040068;28;19913;-78
2022/08/11 00:21:59;;;;;;;;;;;;;;;;;;1040309;28;19917;-78
2022/08/11 00:22:29;;;;;;;;;;;;;;;;;;1040106;28;19952;-78
2022/08/11 00:23:00;;;;;;;;;;;;;;;;;;1036132;28;20012;-78
2022/08/11 00:23:30;;;;;;;;;;;;;;;;;;1040203;28;19909;-78
2022/08/11 00:24:00;;;;;;;;;;;;;;;;;;1040241;28;19936;-78
2022/08/11 00:24:30;;;;;;;;;;;;;;;;;;1040185;28;20319;-78
2022/08/11 00:25:01;;;;;;;;;;;;;;;;;;1040343;28;19919;-78
2022/08/11 00:25:31;;;;;;;;;;;;;;;;;;1040169;28;19916;-78
2022/08/11 00:26:01;;;;;;;;;;;;;;;;;;1040601;28;19909;-78
2022/08/11 00:26:32;;;;;;;;;;;;;;;;;;1040520;28;19931;-78
2022/08/11 00:27:02;;;;;;;;;;;;;;;;;;1040593;28;19909;-78
2022/08/11 00:27:32;;;;;;;;;;;;;;;;;;1040084;28;19951;-78
2022/08/11 00:28:02;;;;;;;;;;;;;;;;;;1040216;28;19923;-78
2022/08/11 00:28:33;;;;;;;;;;;;;;;;;;1040227;28;20008;-78
2022/08/11 00:29:03;;;;;;;;;;;;;;;;;;1040159;28;20000;-78
2022/08/11 00:29:34;;;;;;;;;;;;;;;;;;1040096;28;19909;-78
2022/08/11 00:30:04;;;;;;;;;;;;;;;;;;1040255;28;19913;-78
2022/08/11 00:30:34;;;;;;;;;;;;;;;;;;1036210;28;19910;-78
2022/08/11 00:31:05;;;;;;;;;;;;;;;;;;1036075;28;20008;-78
2022/08/11 00:31:35;;;;;;;;;;;;;;;;;;1040233;28;19908;-78
2022/08/11 00:32:05;;;;;;;;;;;;;;;;;;1040401;28;20012;-78
2022/08/11 00:32:36;;;;;;;;;;;;;;;;;;1040185;28;20015;-78
2022/08/11 00:33:06;;;;;;;;;;;;;;;;;;1040317;28;19909;-78
2022/08/11 00:33:37;;;;;;;;;;;;;;;;;;1036032;28;19913;-78
2022/08/11 00:34:07;;;;;;;;;;;;;;;;;;1036090;28;20395;-78
2022/08/11 00:34:37;;;;;;;;;;;;;;;;;;1036167;28;19910;-78
2022/08/11 00:35:07;;;;;;;;;;;;;;;;;;1036245;28;19916;-78
2022/08/11 00:35:38;;;;;;;;;;;;;;;;;;1040183;28;20353;-78
2022/08/11 00:36:08;;;;;;;;;;;;;;;;;;1040111;28;19960;-78
2022/08/11 00:36:38;;;;;;;;;;;;;;;;;;1040040;28;20043;-78
2022/08/11 00:37:09;;;;;;;;;;;;;;;;;;1040094;28;19959;-78
2022/08/11 00:37:39;;;;;;;;;;;;;;;;;;1040022;28;19983;-78
2022/08/11 00:38:09;;;;;;;;;;;;;;;;;;1036204;28;19921;-78
2022/08/11 00:38:40;;;;;;;;;;;;;;;;;;1035976;28;19960;-78
2022/08/11 00:39:10;;;;;;;;;;;;;;;;;;1036356;28;19909;-78
2022/08/11 00:39:40;;;;;;;;;;;;;;;;;;1035920;28;21295;-78
2022/08/11 00:40:11;;;;;;;;;;;;;;;;;;1036296;28;19917;-78
2022/08/11 00:40:42;;;;;;;;;;;;;;;;;;1035959;28;19918;-79
2022/08/11 00:41:12;;;;;;;;;;;;;;;;;;1036343;28;19909;-77
2022/08/11 00:41:42;;;;;;;;;;;;;;;;;;1040023;28;19909;-78
2022/08/11 00:42:12;;;;;;;;;;;;;;;;;;1040222;28;19921;-78
2022/08/11 00:42:43;;;;;;;;;;;;;;;;;;1036025;28;19916;-78
2022/08/11 00:43:13;;;;;;;;;;;;;;;;;;1036139;28;19992;-78
2022/08/11 00:43:43;;;;;;;;;;;;;;;;;;1040242;28;19909;-78
2022/08/11 00:44:14;;;;;;;;;;;;;;;;;;1040295;28;19948;-78
2022/08/11 00:44:45;;;;;;;;;;;;;;;;;;1040557;28;19967;-78
2022/08/11 00:45:15;;;;;;;;;;;;;;;;;;1040678;28;19909;-78
2022/08/11 00:45:45;;;;;;;;;;;;;;;;;;1040131;28;20277;-78
2022/08/11 00:46:16;;;;;;;;;;;;;;;;;;1040214;28;19924;-78
2022/08/11 00:46:46;;;;;;;;;;;;;;;;;;1040104;28;19909;-78
2022/08/11 00:47:16;;;;;;;;;;;;;;;;;;1040233;28;19909;-78
2022/08/11 00:47:46;;;;;;;;;;;;;;;;;;1040028;28;20004;-78
2022/08/11 00:48:17;;;;;;;;;;;;;;;;;;1040190;28;19962;-78
2022/08/11 00:48:47;;;;;;;;;;;;;;;;;;1040233;28;19917;-78
2022/08/11 00:49:18;;;;;;;;;;;;;;;;;;1040139;28;19959;-78
2022/08/11 00:49:48;;;;;;;;;;;;;;;;;;1040192;28;19915;-78
2022/08/11 00:50:18;;;;;;;;;;;;;;;;;;1040369;28;19909;-78
2022/08/11 00:50:49;;;;;;;;;;;;;;;;;;1040421;28;19909;-78
2022/08/11 00:51:19;;;;;;;;;;;;;;;;;;1036153;28;19917;-78
2022/08/11 00:51:49;;;;;;;;;;;;;;;;;;1035900;28;19928;-78
2022/08/11 00:52:20;;;;;;;;;;;;;;;;;;1036183;28;19916;-78
2022/08/11 00:52:50;;;;;;;;;;;;;;;;;;1035981;28;20343;-78
2022/08/11 00:53:22;;;;;;;;;;;;;;;;;;1036097;28;20362;-78
2022/08/11 00:53:52;;;;;;;;;;;;;;;;;;1036242;28;20029;-78
2022/08/11 00:54:22;;;;;;;;;;;;;;;;;;1036203;28;19910;-78
2022/08/11 00:54:53;;;;;;;;;;;;;;;;;;1035960;28;19913;-78
2022/08/11 00:55:23;;;;;;;;;;;;;;;;;;1036022;28;19918;-78
2022/08/11 00:55:54;;;;;;;;;;;;;;;;;;1035890;28;20316;-78
2022/08/11 00:56:24;;;;;;;;;;;;;;;;;;1036069;28;19913;-78
2022/08/11 00:56:55;;;;;;;;;;;;;;;;;;1036257;28;19909;-78
2022/08/11 00:57:26;;;;;;;;;;;;;;;;;;1040339;28;19909;-78
2022/08/11 00:57:56;;;;;;;;;;;;;;;;;;1040089;28;20286;-78
2022/08/11 00:58:26;;;;;;;;;;;;;;;;;;1040093;28;19963;-78
2022/08/11 00:58:57;;;;;;;;;;;;;;;;;;1040229;28;19975;-78
2022/08/11 00:59:27;;;;;;;;;;;;;;;;;;1040252;28;20340;-78
2022/08/11 00:59:57;;;;;;;;;;;;;;;;;;1040126;28;19919;-78
2022/08/11 01:00:28;;;;;;;;;;;;;;;;;;1040199;28;20007;-78
2022/08/11 01:00:58;;;;;;;;;;;;;;;;;;1036060;28;19914;-78
2022/08/11 01:01:28;;;;;;;;;;;;;;;;;;1035949;28;19914;-78
2022/08/11 01:01:59;;;;;;;;;;;;;;;;;;1040114;28;19948;-78
2022/08/11 01:02:29;;;;;;;;;;;;;;;;;;1039845;28;19917;-78
2022/08/11 01:02:59;;;;;;;;;;;;;;;;;;1039450;28;19948;-78
2022/08/11 01:03:30;;;;;;;;;;;;;;;;;;1035776;28;20008;-78
2022/08/11 01:04:00;;;;;;;;;;;;;;;;;;1036036;28;19913;-78
2022/08/11 01:04:30;;;;;;;;;;;;;;;;;;1036031;28;19965;-78
2022/08/11 01:05:01;;;;;;;;;;;;;;;;;;1036077;28;19913;-78
2022/08/11 01:05:31;;;;;;;;;;;;;;;;;;1035887;28;19910;-78
2022/08/11 01:06:02;;;;;;;;;;;;;;;;;;1035987;28;19909;-78
2022/08/11 01:06:33;;;;;;;;;;;;;;;;;;1035870;28;19909;-78
2022/08/11 01:07:04;;;;;;;;;;;;;;;;;;1032266;28;19965;-78
2022/08/11 01:07:34;;;;;;;;;;;;;;;;;;1032127;28;20368;-77
2022/08/11 01:08:04;;;;;;;;;;;;;;;;;;1036153;28;19917;-77
2022/08/11 01:08:35;;;;;;;;;;;;;;;;;;1035956;28;19917;-78
2022/08/11 01:09:06;;;;;;;;;;;;;;;;;;1040205;28;20357;-79
2022/08/11 01:09:36;;;;;;;;;;;;;;;;;;1035883;28;20409;-77
2022/08/11 01:10:08;;;;;;;;;;;;;;;;;;1036076;28;19910;-78
2022/08/11 01:10:39;;;;;;;;;;;;;;;;;;1035888;28;19909;-77
2022/08/11 01:11:09;;;;;;;;;;;;;;;;;;1036059;28;20158;-78
2022/08/11 01:11:39;;;;;;;;;;;;;;;;;;1036292;28;19952;-78
2022/08/11 01:12:09;;;;;;;;;;;;;;;;;;1040196;28;19920;-78
2022/08/11 01:12:40;;;;;;;;;;;;;;;;;;1040126;28;19916;-78
2022/08/11 01:13:10;;;;;;;;;;;;;;;;;;1040382;28;19909;-77
2022/08/11 01:13:40;;;;;;;;;;;;;;;;;;1040059;28;19977;-78
2022/08/11 01:14:11;;;;;;;;;;;;;;;;;;1035915;28;19936;-78
2022/08/11 01:14:41;;;;;;;;;;;;;;;;;;1035922;28;19924;-78
2022/08/11 01:15:11;;;;;;;;;;;;;;;;;;1035943;28;19910;-78
2022/08/11 01:15:42;;;;;;;;;;;;;;;;;;1035956;28;19910;-78
2022/08/11 01:16:13;;;;;;;;;;;;;;;;;;1040072;28;19916;-78
2022/08/11 01:16:43;;;;;;;;;;;;;;;;;;1040084;28;19939;-78
2022/08/11 01:17:13;;;;;;;;;;;;;;;;;;1040004;28;19913;-78
2022/08/11 01:17:43;;;;;;;;;;;;;;;;;;1040239;28;19909;-78
2022/08/11 01:18:14;;;;;;;;;;;;;;;;;;1040020;28;20392;-78
2022/08/11 01:18:44;;;;;;;;;;;;;;;;;;1040004;28;19909;-78
2022/08/11 01:19:14;;;;;;;;;;;;;;;;;;1040143;28;19909;-78
2022/08/11 01:19:45;;;;;;;;;;;;;;;;;;1040093;28;19959;-78
2022/08/11 01:20:15;;;;;;;;;;;;;;;;;;1035957;28;20408;-78
2022/08/11 01:20:45;;;;;;;;;;;;;;;;;;1036004;28;19909;-79
2022/08/11 01:21:16;;;;;;;;;;;;;;;;;;1035985;28;19956;-79
2022/08/11 01:21:48;;;;;;;;;;;;;;;;;;1036082;28;19975;-79
2022/08/11 01:22:18;;;;;;;;;;;;;;;;;;1040135;28;20431;-79
2022/08/11 01:22:48;;;;;;;;;;;;;;;;;;1035981;28;19964;-79
2022/08/11 01:23:18;;;;;;;;;;;;;;;;;;1040122;28;19943;-79
2022/08/11 01:23:49;;;;;;;;;;;;;;;;;;1040077;28;19909;-79
2022/08/11 01:24:19;;;;;;;;;;;;;;;;;;1039987;28;20569;-79
2022/08/11 01:24:49;;;;;;;;;;;;;;;;;;1039201;28;19983;-79
2022/08/11 01:25:20;;;;;;;;;;;;;;;;;;1037288;28;20285;-78
2022/08/11 01:25:50;;;;;;;;;;;;;;;;;;1038079;28;19909;-78
2022/08/11 01:26:21;;;;;;;;;;;;;;;;;;1039216;28;19909;-78
2022/08/11 01:26:51;;;;;;;;;;;;;;;;;;1039685;28;19980;-78
2022/08/11 01:27:21;;;;;;;;;;;;;;;;;;1039697;28;19917;-78
2022/08/11 01:27:52;;;;;;;;;;;;;;;;;;1040278;28;20312;-78
2022/08/11 01:28:22;;;;;;;;;;;;;;;;;;1039592;28;19917;-78
2022/08/11 01:28:52;;;;;;;;;;;;;;;;;;1039170;28;19963;-77
2022/08/11 01:29:22;;;;;;;;;;;;;;;;;;1039220;28;20314;-77
2022/08/11 01:29:53;;;;;;;;;;;;;;;;;;1040047;28;19920;-78
2022/08/11 01:30:23;;;;;;;;;;;;;;;;;;1039352;28;20008;-78
2022/08/11 01:30:53;;;;;;;;;;;;;;;;;;1039968;28;19913;-78
2022/08/11 01:31:25;;;;;;;;;;;;;;;;;;1034444;28;19941;-78
2022/08/11 01:31:55;;;;;;;;;;;;;;;;;;1027985;28;19997;-78
2022/08/11 01:32:28;;;;;;;;;;;;;;;;;;1030959;28;19917;-78
2022/08/11 01:32:58;;;;;;;;;;;;;;;;;;1032507;28;20261;-78
2022/08/11 01:33:28;;;;;;;;;;;;;;;;;;1034903;28;19968;-78
2022/08/11 01:33:58;;;;;;;;;;;;;;;;;;1036262;28;20063;-78
2022/08/11 01:34:29;;;;;;;;;;;;;;;;;;1036640;28;19963;-78
2022/08/11 01:35:00;;;;;;;;;;;;;;;;;;1039695;28;20312;-78
2022/08/11 01:35:30;;;;;;;;;;;;;;;;;;1037393;28;19918;-78
2022/08/11 01:36:01;;;;;;;;;;;;;;;;;;1038999;28;19920;-78
2022/08/11 01:36:31;;;;;;;;;;;;;;;;;;1034038;28;20398;-78
2022/08/11 01:37:01;;;;;;;;;;;;;;;;;;1035373;28;19913;-78
2022/08/11 01:37:32;;;;;;;;;;;;;;;;;;1035712;28;19917;-78
2022/08/11 01:38:03;;;;;;;;;;;;;;;;;;1035424;28;19914;-78
2022/08/11 01:38:33;;;;;;;;;;;;;;;;;;1038674;28;19910;-78
2022/08/11 01:39:04;;;;;;;;;;;;;;;;;;1038366;28;19921;-77
2022/08/11 01:39:34;;;;;;;;;;;;;;;;;;1037981;28;19917;-78
2022/08/11 01:40:04;;;;;;;;;;;;;;;;;;1034850;28;19909;-79
2022/08/11 01:40:35;;;;;;;;;;;;;;;;;;1038163;28;19913;-79
2022/08/11 01:41:05;;;;;;;;;;;;;;;;;;1035790;28;19909;-79
2022/08/11 01:44:51;;;;;;;;;;;;;;;;;;1039081;28;19909;-78
2022/08/11 01:45:21;;;;;;;;;;;;;;;;;;1038798;28;20008;-78
2022/08/11 01:45:51;;;;;;;;;;;;;;;;;;1039718;28;19952;-78
2022/08/11 01:46:22;;;;;;;;;;;;;;;;;;1036951;28;20270;-78
2022/08/11 01:46:52;;;;;;;;;;;;;;;;;;1035618;28;19916;-78
2022/08/11 01:48:11;;;;;;;;;;;;;;;;;;1033651;28;20348;-78
2022/08/11 01:48:42;;;;;;;;;;;;;;;;;;1035882;28;20012;-78
2022/08/11 01:49:12;;;;;;;;;;;;;;;;;;1037247;28;19918;-78
2022/08/11 01:49:42;;;;;;;;;;;;;;;;;;1031668;28;19921;-77
2022/08/11 01:50:13;;;;;;;;;;;;;;;;;;1033808;28;19918;-77
2022/08/11 01:50:45;;;;;;;;;;;;;;;;;;1031584;28;19909;-77
2022/08/11 01:51:16;;;;;;;;;;;;;;;;;;1032619;28;19916;-77
2022/08/11 01:51:46;;;;;;;;;;;;;;;;;;1031807;28;19921;-77
2022/08/11 01:52:17;;;;;;;;;;;;;;;;;;1041380;23;19941;-77
2022/08/11 01:52:47;;;;;;;;;;;;;;;;;;1047145;22;19909;-78
2022/08/11 01:53:18;;;;;;;;;;;;;;;;;;1039737;28;19913;-78
2022/08/11 01:53:48;;;;;;;;;;;;;;;;;;1039352;28;20313;-78
2022/08/11 01:54:19;;;;;;;;;;;;;;;;;;1040245;28;20421;-78
2022/08/11 01:54:49;;;;;;;;;;;;;;;;;;1039677;28;19917;-78
2022/08/11 01:55:20;;;;;;;;;;;;;;;;;;1039172;28;19921;-78
2022/08/11 01:55:54;;;;;;;;;;;;;;;;;;1039835;28;19909;-78
2022/08/11 01:56:24;;;;;;;;;;;;;;;;;;1036572;28;19924;-78
2022/08/11 01:56:55;;;;;;;;;;;;;;;;;;1032350;28;19909;-78
2022/08/11 01:57:26;;;;;;;;;;;;;;;;;;1038855;28;19917;-78
2022/08/11 01:57:56;;;;;;;;;;;;;;;;;;1040706;28;19966;-78
2022/08/11 01:58:27;;;;;;;;;;;;;;;;;;1040344;28;19924;-78
2022/08/11 01:58:57;;;;;;;;;;;;;;;;;;1045050;28;19917;-78
2022/08/11 01:59:27;;;;;;;;;;;;;;;;;;1037364;28;19924;-78
2022/08/11 01:59:58;;;;;;;;;;;;;;;;;;1038807;28;20318;-78
2022/08/11 02:00:29;;;;;;;;;;;;;;;;;;1040226;28;19917;-78
2022/08/11 02:00:59;;;;;;;;;;;;;;;;;;1040766;28;19913;-78
2022/08/11 02:01:30;;;;;;;;;;;;;;;;;;1035517;28;20016;-78
2022/08/11 02:02:00;;;;;;;;;;;;;;;;;;1040636;28;19918;-78
2022/08/11 02:02:46;;;;;;;;;;;;;;;;;;1040702;28;20318;-78
2022/08/11 02:03:16;;;;;;;;;;;;;;;;;;1038654;28;19952;-78
2022/08/11 02:03:47;;;;;;;;;;;;;;;;;;1036755;28;19910;-78
2022/08/11 02:04:17;;;;;;;;;;;;;;;;;;1039355;28;19909;-78
2022/08/11 02:04:47;;;;;;;;;;;;;;;;;;1040241;28;19913;-78
2022/08/11 02:05:18;;;;;;;;;;;;;;;;;;1034740;28;20031;-78
2022/08/11 02:05:48;;;;;;;;;;;;;;;;;;1034594;28;20381;-78
2022/08/11 02:07:07;;;;;;;;;;;;;;;;;;1039710;28;19909;-78
2022/08/11 02:07:37;;;;;;;;;;;;;;;;;;1036904;28;19913;-78
2022/08/11 02:08:08;;;;;;;;;;;;;;;;;;1038472;28;19918;-78
2022/08/11 02:08:38;;;;;;;;;;;;;;;;;;1039949;28;20355;-78
2022/08/11 02:09:08;;;;;;;;;;;;;;;;;;1039515;28;20277;-78
2022/08/11 02:09:41;;;;;;;;;;;;;;;;;;1039703;28;19963;-78
2022/08/11 02:11:48;;;;;;;;;;;;;;;;;;1040259;28;19909;-78
2022/08/11 02:12:20;;;;;;;;;;;;;;;;;;1038533;28;19921;-78
2022/08/11 02:12:50;;;;;;;;;;;;;;;;;;1040109;28;19971;-78
2022/08/11 02:13:20;;;;;;;;;;;;;;;;;;1038941;28;19939;-78
2022/08/11 02:13:51;;;;;;;;;;;;;;;;;;1038985;28;19924;-78
2022/08/11 02:14:21;;;;;;;;;;;;;;;;;;1037323;28;19921;-78
2022/08/11 02:14:53;;;;;;;;;;;;;;;;;;1038443;28;19918;-78
2022/08/11 02:15:23;;;;;;;;;;;;;;;;;;1034173;28;19921;-79
2022/08/11 02:15:54;;;;;;;;;;;;;;;;;;1037594;28;19961;-78
2022/08/11 02:16:24;;;;;;;;;;;;;;;;;;1032450;28;19926;-78
2022/08/11 02:16:54;;;;;;;;;;;;;;;;;;1037418;28;19913;-78
2022/08/11 02:17:24;;;;;;;;;;;;;;;;;;1038452;28;19917;-78
2022/08/11 02:17:55;;;;;;;;;;;;;;;;;;1041274;28;19920;-78
2022/08/11 02:23:38;;;;;;;;;;;;;;;;;;1039663;28;19925;-78
2022/08/11 02:24:07;;;;;;;;;;;;;;;;;;1040154;28;20327;-79
2022/08/11 02:24:37;;;;;;;;;;;;;;;;;;1040262;28;20050;-79
2022/08/11 02:25:07;;;;;;;;;;;;;;;;;;1040145;28;19996;-79
2022/08/11 02:25:40;;;;;;;;;;;;;;;;;;1041420;28;20039;-79
2022/08/11 02:26:10;;;;;;;;;;;;;;;;;;1041676;28;20070;-79
2022/08/11 02:26:40;;;;;;;;;;;;;;;;;;1040126;28;20293;-79
2022/08/11 02:27:11;;;;;;;;;;;;;;;;;;1041896;23;20016;-78
2022/08/11 02:27:41;;;;;;;;;;;;;;;;;;1033517;28;19964;-78
2022/08/11 02:28:11;;;;;;;;;;;;;;;;;;1030787;28;19975;-78
2022/08/11 02:28:41;;;;;;;;;;;;;;;;;;1032185;28;19918;-78
2022/08/11 02:29:12;;;;;;;;;;;;;;;;;;1030729;28;19918;-78
2022/08/11 02:29:42;;;;;;;;;;;;;;;;;;1034342;28;19914;-78
2022/08/11 02:30:12;;;;;;;;;;;;;;;;;;1031678;28;19961;-78
2022/08/11 02:30:43;;;;;;;;;;;;;;;;;;1032468;28;19969;-78
2022/08/11 02:33:39;;;;;;;;;;;;;;;;;;1032214;28;19981;-78
2022/08/11 02:34:11;;;;;;;;;;;;;;;;;;1033003;28;19914;-78
2022/08/11 02:34:41;;;;;;;;;;;;;;;;;;1030289;28;20420;-78
2022/08/11 02:35:11;;;;;;;;;;;;;;;;;;1028477;28;19914;-78
2022/08/11 02:35:44;;;;;;;;;;;;;;;;;;1030237;28;20379;-78
2022/08/11 02:36:15;;;;;;;;;;;;;;;;;;1026140;28;19965;-78
2022/08/11 02:36:45;;;;;;;;;;;;;;;;;;1029656;28;20428;-78
2022/08/11 02:37:15;;;;;;;;;;;;;;;;;;1031500;28;19984;-78
2022/08/11 02:37:46;;;;;;;;;;;;;;;;;;1031166;28;19940;-78
2022/08/11 02:38:16;;;;;;;;;;;;;;;;;;1031022;28;19910;-78
2022/08/11 02:38:46;;;;;;;;;;;;;;;;;;1033991;28;20289;-78
2022/08/11 02:39:17;;;;;;;;;;;;;;;;;;1032189;28;19914;-78
2022/08/11 02:39:47;;;;;;;;;;;;;;;;;;1030495;28;19918;-78
2022/08/11 02:40:19;;;;;;;;;;;;;;;;;;1032259;28;20426;-78
2022/08/11 02:40:50;;;;;;;;;;;;;;;;;;1033314;28;19914;-78
2022/08/11 02:42:24;;;;;;;;;;;;;;;;;;1026904;28;19918;-78
2022/08/11 02:42:54;;;;;;;;;;;;;;;;;;1032879;28;19914;-79
2022/08/11 02:43:24;;;;;;;;;;;;;;;;;;1032586;28;19918;-78
2022/08/11 02:43:55;;;;;;;;;;;;;;;;;;1033658;28;19920;-78
2022/08/11 02:44:27;;;;;;;;;;;;;;;;;;1034399;28;19917;-79
2022/08/11 02:44:57;;;;;;;;;;;;;;;;;;1034344;28;20037;-79
2022/08/11 02:45:27;;;;;;;;;;;;;;;;;;1031927;28;19949;-78
2022/08/11 02:45:58;;;;;;;;;;;;;;;;;;1031661;28;20424;-78
2022/08/11 02:46:28;;;;;;;;;;;;;;;;;;1028716;28;19934;-78
2022/08/11 02:46:58;;;;;;;;;;;;;;;;;;1028556;28;20016;-78
2022/08/11 02:47:29;;;;;;;;;;;;;;;;;;1032913;28;20267;-78
2022/08/11 02:49:54;;;;;;;;;;;;;;;;;;1031600;28;19917;-78
2022/08/11 02:50:25;;;;;;;;;;;;;;;;;;1031733;28;19917;-78
2022/08/11 02:50:55;;;;;;;;;;;;;;;;;;1028846;28;19961;-78
2022/08/11 02:51:25;;;;;;;;;;;;;;;;;;1026884;28;19918;-78
2022/08/11 02:51:56;;;;;;;;;;;;;;;;;;1028634;28;19917;-78
2022/08/11 02:52:26;;;;;;;;;;;;;;;;;;1028646;28;20429;-78
2022/08/11 02:52:59;;;;;;;;;;;;;;;;;;1032498;28;19935;-78
2022/08/11 02:53:30;;;;;;;;;;;;;;;;;;1031646;28;19918;-78
2022/08/11 02:54:00;;;;;;;;;;;;;;;;;;1033758;28;20371;-78
2022/08/11 02:54:30;;;;;;;;;;;;;;;;;;1034477;28;19913;-78
2022/08/11 02:55:01;;;;;;;;;;;;;;;;;;1028101;28;19918;-78
2022/08/11 02:55:33;;;;;;;;;;;;;;;;;;1028823;28;19996;-78
2022/08/11 02:56:04;;;;;;;;;;;;;;;;;;1028107;28;20349;-78
2022/08/11 02:56:34;;;;;;;;;;;;;;;;;;1033070;28;19953;-78
2022/08/11 02:57:04;;;;;;;;;;;;;;;;;;1031631;28;19925;-78
2022/08/11 02:57:35;;;;;;;;;;;;;;;;;;1032771;28;19975;-78
2022/08/11 02:58:05;;;;;;;;;;;;;;;;;;1031803;28;19914;-78
2022/08/11 02:58:35;;;;;;;;;;;;;;;;;;1034395;28;19921;-78
2022/08/11 02:59:54;;;;;;;;;;;;;;;;;;1031963;28;20370;-78
2022/08/11 03:00:25;;;;;;;;;;;;;;;;;;1031285;28;19918;-78
2022/08/11 03:00:56;;;;;;;;;;;;;;;;;;1032183;28;19968;-77
2022/08/11 03:01:26;;;;;;;;;;;;;;;;;;1029302;28;19918;-78
2022/08/11 03:01:56;;;;;;;;;;;;;;;;;;1032757;28;20384;-78
2022/08/11 03:02:30;;;;;;;;;;;;;;;;;;1029971;28;20388;-78
2022/08/11 03:03:01;;;;;;;;;;;;;;;;;;1028035;28;20481;-78
2022/08/11 03:03:32;;;;;;;;;;;;;;;;;;1026820;28;20041;-78
2022/08/11 03:04:02;;;;;;;;;;;;;;;;;;1033446;28;20481;-78
2022/08/11 03:04:32;;;;;;;;;;;;;;;;;;1031885;28;20561;-78
2022/08/11 03:05:03;;;;;;;;;;;;;;;;;;1035048;28;19963;-78
2022/08/11 03:05:33;;;;;;;;;;;;;;;;;;1040861;23;23510;-78
2022/08/11 03:06:03;;;;;;;;;;;;;;;;;;1038522;28;19952;-78
2022/08/11 03:06:34;;;;;;;;;;;;;;;;;;1032355;28;19917;-78
2022/08/11 03:07:04;;;;;;;;;;;;;;;;;;1043988;22;20770;-77
2022/08/11 03:07:35;;;;;;;;;;;;;;;;;;1040921;28;19917;-77
2022/08/11 03:08:05;;;;;;;;;;;;;;;;;;1041651;28;20339;-77
2022/08/11 03:08:35;;;;;;;;;;;;;;;;;;1039308;28;20007;-77
2022/08/11 03:09:06;;;;;;;;;;;;;;;;;;1039438;28;19920;-77
2022/08/11 03:09:36;;;;;;;;;;;;;;;;;;1041248;28;19924;-78
2022/08/11 03:10:08;;;;;;;;;;;;;;;;;;1041947;28;20463;-78
2022/08/11 03:10:39;;;;;;;;;;;;;;;;;;1040449;28;19917;-78
2022/08/11 03:16:51;;;;;;;;;;;;;;;;;;1039662;28;19917;-77
2022/08/11 03:17:21;;;;;;;;;;;;;;;;;;1038794;28;19921;-77
2022/08/11 03:17:51;;;;;;;;;;;;;;;;;;1040295;28;20018;-78
2022/08/11 03:18:23;;;;;;;;;;;;;;;;;;1039644;28;20012;-78
2022/08/11 03:18:55;;;;;;;;;;;;;;;;;;1038270;28;19917;-78
2022/08/11 03:19:25;;;;;;;;;;;;;;;;;;1039017;28;19921;-78
2022/08/11 03:19:55;;;;;;;;;;;;;;;;;;1041485;28;19913;-78
2022/08/11 03:20:26;;;;;;;;;;;;;;;;;;1038474;28;19917;-78
2022/08/11 03:20:56;;;;;;;;;;;;;;;;;;1041557;28;20012;-78
2022/08/11 03:21:27;;;;;;;;;;;;;;;;;;1040354;28;20393;-78
2022/08/11 03:21:57;;;;;;;;;;;;;;;;;;1042263;28;20273;-78
2022/08/11 03:22:27;;;;;;;;;;;;;;;;;;1032731;28;20436;-78
2022/08/11 03:22:58;;;;;;;;;;;;;;;;;;1040472;28;19913;-77
2022/08/11 03:23:28;;;;;;;;;;;;;;;;;;1030582;28;19925;-77
2022/08/11 03:24:00;;;;;;;;;;;;;;;;;;1034594;28;19914;-77
2022/08/11 03:24:31;;;;;;;;;;;;;;;;;;1038268;28;20389;-77
2022/08/11 03:25:01;;;;;;;;;;;;;;;;;;1038226;28;19920;-78
2022/08/11 03:25:31;;;;;;;;;;;;;;;;;;1038502;28;20004;-77
2022/08/11 03:26:02;;;;;;;;;;;;;;;;;;1036361;28;20065;-77
2022/08/11 03:26:32;;;;;;;;;;;;;;;;;;1033876;28;19910;-77
2022/08/11 03:27:02;;;;;;;;;;;;;;;;;;1033718;28;19934;-77
2022/08/11 03:27:35;;;;;;;;;;;;;;;;;;1039178;28;19936;-77
2022/08/11 03:28:05;;;;;;;;;;;;;;;;;;1037866;28;19921;-78
2022/08/11 03:28:36;;;;;;;;;;;;;;;;;;1038120;28;19913;-78
2022/08/11 03:29:06;;;;;;;;;;;;;;;;;;1037631;28;19913;-78
2022/08/11 03:29:37;;;;;;;;;;;;;;;;;;1038040;28;19995;-78
2022/08/11 03:30:07;;;;;;;;;;;;;;;;;;1038003;28;19921;-78
2022/08/11 03:30:37;;;;;;;;;;;;;;;;;;1038567;28;19920;-78
2022/08/11 03:31:08;;;;;;;;;;;;;;;;;;1037038;28;19920;-78
2022/08/11 03:31:38;;;;;;;;;;;;;;;;;;1042319;28;19913;-78
2022/08/11 03:32:08;;;;;;;;;;;;;;;;;;1045128;28;20391;-78
2022/08/11 03:32:39;;;;;;;;;;;;;;;;;;1043079;28;19909;-78
2022/08/11 03:34:02;;;;;;;;;;;;;;;;;;1046405;28;19913;-78
2022/08/11 03:34:35;;;;;;;;;;;;;;;;;;1041904;28;19917;-78
2022/08/11 03:35:05;;;;;;;;;;;;;;;;;;1037289;28;19913;-78
2022/08/11 03:35:36;;;;;;;;;;;;;;;;;;1036793;28;19964;-78
2022/08/11 03:36:06;;;;;;;;;;;;;;;;;;1037521;28;19913;-77
2022/08/11 03:36:37;;;;;;;;;;;;;;;;;;1040420;28;19913;-78
2022/08/11 03:37:08;;;;;;;;;;;;;;;;;;1037213;28;19924;-78
2022/08/11 03:37:50;;;;;;;;;;;;;;;;;;1038548;28;19917;-78
2022/08/11 03:38:24;;;;;;;;;;;;;;;;;;1040543;28;20267;-78
2022/08/11 03:38:54;;;;;;;;;;;;;;;;;;1038958;28;20000;-78
2022/08/11 03:39:25;;;;;;;;;;;;;;;;;;1036263;28;19921;-77
2022/08/11 03:39:55;;;;;;;;;;;;;;;;;;1035851;28;19913;-78
2022/08/11 03:42:03;;;;;;;;;;;;;;;;;;1041502;28;19908;-78
2022/08/11 03:42:33;;;;;;;;;;;;;;;;;;1042005;28;19916;-78
2022/08/11 03:43:04;;;;;;;;;;;;;;;;;;1041893;28;19916;-78
2022/08/11 03:43:34;;;;;;;;;;;;;;;;;;1041016;28;20075;-78
2022/08/11 03:44:05;;;;;;;;;;;;;;;;;;1041611;28;19912;-78
2022/08/11 03:44:35;;;;;;;;;;;;;;;;;;1043042;28;19912;-78
2022/08/11 03:45:05;;;;;;;;;;;;;;;;;;1041811;28;19935;-78
2022/08/11 03:45:36;;;;;;;;;;;;;;;;;;1042156;28;19912;-77
2022/08/11 03:46:07;;;;;;;;;;;;;;;;;;1041523;28;19912;-77
2022/08/11 03:46:38;;;;;;;;;;;;;;;;;;1042089;28;19999;-77
2022/08/11 03:47:08;;;;;;;;;;;;;;;;;;1037509;28;20007;-77
2022/08/11 03:47:39;;;;;;;;;;;;;;;;;;1037893;28;19913;-77
2022/08/11 03:48:09;;;;;;;;;;;;;;;;;;1037366;28;19928;-77
2022/08/11 03:48:39;;;;;;;;;;;;;;;;;;1037314;28;20003;-77
2022/08/11 03:49:10;;;;;;;;;;;;;;;;;;1041402;28;19913;-77
2022/08/11 03:49:40;;;;;;;;;;;;;;;;;;1046278;28;19912;-77
2022/08/11 03:50:10;;;;;;;;;;;;;;;;;;1041905;28;19944;-77
2022/08/11 03:50:41;;;;;;;;;;;;;;;;;;1040139;28;20385;-77
2022/08/11 03:51:11;;;;;;;;;;;;;;;;;;1038849;28;20325;-77
2022/08/11 03:51:41;;;;;;;;;;;;;;;;;;1037832;28;20441;-76
2022/08/11 03:52:12;;;;;;;;;;;;;;;;;;1033153;28;19913;-77
2022/08/11 03:52:43;;;;;;;;;;;;;;;;;;1035849;28;19918;-77
2022/08/11 03:53:13;;;;;;;;;;;;;;;;;;1032289;28;19914;-77
2022/08/11 03:53:44;;;;;;;;;;;;;;;;;;1039816;28;19925;-77
2022/08/11 03:54:14;;;;;;;;;;;;;;;;;;1040034;28;19909;-77
2022/08/11 03:54:45;;;;;;;;;;;;;;;;;;1041938;28;20011;-78